createdAt,value
2018-08-28T00:00:57.242Z,100513.50
2018-08-28T00:03:26.216Z,100517.48
2018-08-28T00:05:54.635Z,100520.70
2018-08-28T00:08:23.167Z,100521.39
2018-08-28T00:10:51.899Z,100525.78
2018-08-28T00:13:20.373Z,100528.80
2018-08-28T00:15:49.170Z,100530.41
2018-08-28T00:18:17.678Z,100531.80
2018-08-28T00:20:46.257Z,100531.48
2018-08-28T00:23:14.703Z,100534.75
2018-08-28T00:25:43.187Z,100533.16
2018-08-28T00:28:11.621Z,100535.30
2018-08-28T00:30:40.283Z,100531.89
2018-08-28T00:33:09.991Z,100536.42
2018-08-28T00:35:38.660Z,100547.80
2018-08-28T00:38:07.339Z,100551.18
2018-08-28T00:40:35.871Z,100549.14
2018-08-28T00:43:04.379Z,100541.38
2018-08-28T00:45:33.311Z,100549.56
2018-08-28T00:48:01.740Z,100548.92
2018-08-28T00:50:30.156Z,100551.72
2018-08-28T00:52:58.789Z,100555.02
2018-08-28T00:55:27.323Z,100552.78
2018-08-28T00:57:55.799Z,100548.97
2018-08-28T01:00:24.287Z,100558.55
2018-08-28T01:02:52.823Z,100550.00
2018-08-28T01:05:22.956Z,100546.75
2018-08-28T01:07:52.038Z,100554.33
2018-08-28T01:10:20.535Z,100553.52
2018-08-28T01:12:49.032Z,100562.33
2018-08-28T01:15:17.537Z,100562.63
2018-08-28T01:17:46.015Z,100560.20
2018-08-28T01:20:14.524Z,100559.90
2018-08-28T01:22:43.304Z,100569.46
2018-08-28T01:25:11.826Z,100569.00
2018-08-28T01:27:40.387Z,100568.27
2018-08-28T01:30:09.159Z,100575.55
2018-08-28T01:32:37.674Z,100583.14
2018-08-28T01:35:06.200Z,100574.73
2018-08-28T01:37:34.948Z,100575.05
2018-08-28T01:40:03.397Z,100580.53
2018-08-28T01:42:31.883Z,100577.88
2018-08-28T01:45:00.348Z,100574.64
2018-08-28T01:47:28.977Z,100575.73
2018-08-28T01:49:57.406Z,100580.09
2018-08-28T01:52:26.116Z,100579.11
2018-08-28T01:54:54.546Z,100579.95
2018-08-28T01:57:23.072Z,100585.13
2018-08-28T01:59:51.800Z,100583.63
2018-08-28T02:02:20.311Z,100587.69
2018-08-28T02:04:48.867Z,100590.30
2018-08-28T02:07:17.591Z,100586.05
2018-08-28T02:09:46.120Z,100589.99
2018-08-28T02:12:14.621Z,100589.63
2018-08-28T02:14:43.383Z,100590.17
2018-08-28T02:17:11.920Z,100589.34
2018-08-28T02:19:40.396Z,100589.20
2018-08-28T02:22:08.967Z,100584.70
2018-08-28T02:24:37.481Z,100591.17
2018-08-28T02:27:06.479Z,100589.16
2018-08-28T02:29:35.004Z,100592.60
2018-08-28T02:32:03.483Z,100598.36
2018-08-28T02:34:32.019Z,100595.41
2018-08-28T02:37:00.493Z,100598.48
2018-08-28T02:39:28.959Z,100596.14
2018-08-28T02:41:57.371Z,100596.56
2018-08-28T02:44:25.879Z,100593.67
2018-08-28T02:46:54.367Z,100603.45
2018-08-28T02:49:22.950Z,100599.30
2018-08-28T02:51:51.602Z,100596.14
2018-08-28T02:54:20.019Z,100593.54
2018-08-28T02:56:48.515Z,100594.88
2018-08-28T02:59:17.077Z,100598.63
2018-08-28T03:01:45.555Z,100602.06
2018-08-28T03:04:13.980Z,100601.55
2018-08-28T03:06:42.463Z,100605.00
2018-08-28T03:09:10.892Z,100603.71
2018-08-28T03:11:39.318Z,100600.86
2018-08-28T03:14:08.002Z,100602.14
2018-08-28T03:16:36.622Z,100606.14
2018-08-28T03:19:05.051Z,100608.44
2018-08-28T03:21:33.692Z,100601.20
2018-08-28T03:24:02.159Z,100595.41
2018-08-28T03:26:30.729Z,100594.85
2018-08-28T03:28:59.562Z,100599.94
2018-08-28T03:31:27.927Z,100597.52
2018-08-28T03:33:56.448Z,100602.75
2018-08-28T03:36:25.105Z,100606.23
2018-08-28T03:38:53.625Z,100594.25
2018-08-28T03:41:22.083Z,100596.64
2018-08-28T03:43:50.580Z,100598.06
2018-08-28T03:46:18.971Z,100603.71
2018-08-28T03:48:47.495Z,100599.72
2018-08-28T03:51:16.185Z,100609.28
2018-08-28T03:53:44.623Z,100613.19
2018-08-28T03:56:13.097Z,100609.57
2018-08-28T03:58:41.624Z,100611.72
2018-08-28T04:01:10.263Z,100618.36
2018-08-28T04:03:38.779Z,100624.72
2018-08-28T04:06:07.747Z,100618.02
2018-08-28T04:08:36.197Z,100615.86
2018-08-28T04:11:04.687Z,100623.84
2018-08-28T04:13:33.335Z,100623.93
2018-08-28T04:16:01.811Z,100623.37
2018-08-28T04:18:30.335Z,100621.86
2018-08-28T04:20:58.923Z,100630.91
2018-08-28T04:23:27.643Z,100631.78
2018-08-28T04:25:56.103Z,100635.48
2018-08-28T04:28:24.839Z,100630.03
2018-08-28T04:30:53.382Z,100627.77
2018-08-28T04:33:21.819Z,100633.27
2018-08-28T04:35:50.268Z,100633.22
2018-08-28T04:38:18.743Z,100639.77
2018-08-28T04:40:47.235Z,100643.05
2018-08-28T04:43:15.683Z,100647.98
2018-08-28T04:45:44.127Z,100648.90
2018-08-28T04:48:12.651Z,100654.93
2018-08-28T04:50:41.360Z,100648.08
2018-08-28T04:53:09.879Z,100649.66
2018-08-28T04:55:38.379Z,100658.22
2018-08-28T04:58:06.923Z,100656.02
2018-08-28T05:00:35.437Z,100653.35
2018-08-28T05:03:03.888Z,100660.46
2018-08-28T05:05:32.519Z,100661.20
2018-08-28T05:08:00.959Z,100662.45
2018-08-28T05:10:29.443Z,100661.41
2018-08-28T05:12:58.163Z,100666.64
2018-08-28T05:15:26.639Z,100656.80
2018-08-28T05:17:55.171Z,100666.30
2018-08-28T05:20:23.899Z,100668.55
2018-08-28T05:22:52.539Z,100667.59
2018-08-28T05:25:21.163Z,100668.20
2018-08-28T05:27:49.839Z,100663.65
2018-08-28T05:30:18.404Z,100667.33
2018-08-28T05:32:46.962Z,100669.58
2018-08-28T05:35:15.584Z,100681.05
2018-08-28T05:37:44.051Z,100673.56
2018-08-28T05:40:12.516Z,100680.62
2018-08-28T05:42:41.279Z,100670.68
2018-08-28T05:45:09.800Z,100676.95
2018-08-28T05:47:38.279Z,100673.64
2018-08-28T05:50:07.109Z,100681.42
2018-08-28T05:52:35.588Z,100684.56
2018-08-28T05:55:04.211Z,100684.52
2018-08-28T05:57:32.696Z,100681.25
2018-08-28T06:00:01.132Z,100682.94
2018-08-28T06:02:29.558Z,100690.12
2018-08-28T06:04:58.092Z,100681.80
2018-08-28T06:07:26.564Z,100689.86
2018-08-28T06:09:54.995Z,100681.29
2018-08-28T06:12:24.027Z,100684.30
2018-08-28T06:14:52.497Z,100685.88
2018-08-28T06:17:20.948Z,100685.13
2018-08-28T06:19:49.399Z,100686.83
2018-08-28T06:22:17.818Z,100691.88
2018-08-28T06:24:46.367Z,100689.32
2018-08-28T06:27:14.963Z,100691.50
2018-08-28T06:29:43.400Z,100698.24
2018-08-28T06:32:11.887Z,100701.29
2018-08-28T06:34:40.619Z,100700.87
2018-08-28T06:37:09.073Z,100703.88
2018-08-28T06:39:37.532Z,100699.41
2018-08-28T06:42:06.251Z,100695.73
2018-08-28T06:44:34.801Z,100703.20
2018-08-28T06:47:03.299Z,100696.27
2018-08-28T06:49:31.947Z,100705.69
2018-08-28T06:52:00.524Z,100702.06
2018-08-28T06:54:28.959Z,100703.14
2018-08-28T06:56:57.695Z,100704.06
2018-08-28T06:59:26.148Z,100701.19
2018-08-28T07:01:54.659Z,100698.17
2018-08-28T07:04:23.421Z,100692.66
2018-08-28T07:06:51.924Z,100692.72
2018-08-28T07:09:20.427Z,100684.41
2018-08-28T07:11:48.947Z,100688.84
2018-08-28T07:14:17.401Z,100683.13
2018-08-28T07:16:45.935Z,100688.83
2018-08-28T07:19:14.447Z,100696.27
2018-08-28T07:21:43.023Z,100692.97
2018-08-28T07:24:11.508Z,100695.19
2018-08-28T07:26:40.043Z,100692.72
2018-08-28T07:29:08.567Z,100692.58
2018-08-28T07:31:37.089Z,100697.96
2018-08-28T07:34:06.052Z,100694.72
2018-08-28T07:36:34.520Z,100696.13
2018-08-28T07:39:03.238Z,100691.09
2018-08-28T07:41:31.935Z,100689.50
2018-08-28T07:44:00.459Z,100688.72
2018-08-28T07:46:28.950Z,100689.84
2018-08-28T07:48:57.503Z,100692.66
2018-08-28T07:51:25.995Z,100691.77
2018-08-28T07:53:54.497Z,100690.07
2018-08-28T07:56:23.002Z,100687.97
2018-08-28T07:58:51.466Z,100692.31
2018-08-28T08:01:19.903Z,100689.89
2018-08-28T08:03:48.596Z,100694.58
2018-08-28T08:06:17.035Z,100693.88
2018-08-28T08:08:45.451Z,100696.73
2018-08-28T08:11:13.983Z,100693.67
2018-08-28T08:13:42.420Z,100697.13
2018-08-28T08:16:10.996Z,100695.51
2018-08-28T08:18:39.606Z,100696.72
2018-08-28T08:21:08.171Z,100698.20
2018-08-28T08:23:36.697Z,100702.95
2018-08-28T08:26:05.177Z,100701.89
2018-08-28T08:28:33.663Z,100705.53
2018-08-28T08:31:02.147Z,100703.01
2018-08-28T08:33:30.772Z,100698.97
2018-08-28T08:35:59.351Z,100697.38
2018-08-28T08:38:27.860Z,100698.44
2018-08-28T08:40:56.363Z,100693.50
2018-08-28T08:43:24.826Z,100694.37
2018-08-28T08:45:53.332Z,100695.71
2018-08-28T08:48:22.103Z,100693.86
2018-08-28T08:50:50.675Z,100697.52
2018-08-28T08:53:19.115Z,100690.70
2018-08-28T08:55:47.635Z,100690.05
2018-08-28T08:58:16.071Z,100688.44
2018-08-28T09:00:44.604Z,100690.05
2018-08-28T09:03:13.270Z,100683.61
2018-08-28T09:05:41.803Z,100679.04
2018-08-28T09:08:10.343Z,100682.23
2018-08-28T09:10:38.960Z,100677.62
2018-08-28T09:13:07.376Z,100678.87
2018-08-28T09:15:35.900Z,100674.50
2018-08-28T09:18:04.559Z,100673.35
2018-08-28T09:20:33.058Z,100669.84
2018-08-28T09:23:01.496Z,100666.44
2018-08-28T09:25:30.315Z,100662.61
2018-08-28T09:27:58.851Z,100669.57
2018-08-28T09:30:27.360Z,100678.53
2018-08-28T09:32:55.881Z,100672.11
2018-08-28T09:35:24.311Z,100663.99
2018-08-28T09:37:52.816Z,100673.16
2018-08-28T09:40:21.541Z,100669.45
2018-08-28T09:42:50.035Z,100666.54
2018-08-28T09:45:18.491Z,100664.59
2018-08-28T09:47:47.181Z,100665.95
2018-08-28T09:50:15.778Z,100664.30
2018-08-28T09:52:44.299Z,100656.66
2018-08-28T09:55:13.132Z,100655.77
2018-08-28T09:57:41.602Z,100654.05
2018-08-28T10:00:14.768Z,100648.22
2018-08-28T10:02:43.619Z,100649.06
2018-08-28T10:05:12.083Z,100643.34
2018-08-28T10:07:40.620Z,100645.18
2018-08-28T10:10:09.112Z,100646.72
2018-08-28T10:12:37.579Z,100640.45
2018-08-28T10:15:06.716Z,100633.92
2018-08-28T10:17:35.204Z,100633.41
2018-08-28T10:20:03.872Z,100630.00
2018-08-28T10:22:32.360Z,100627.91
2018-08-28T10:25:00.896Z,100625.00
2018-08-28T10:27:29.473Z,100620.65
2018-08-28T10:29:58.193Z,100622.23
2018-08-28T10:32:26.713Z,100614.69
2018-08-28T10:34:55.484Z,100616.56
2018-08-28T10:37:23.967Z,100612.45
2018-08-28T10:39:52.579Z,100617.90
2018-08-28T10:42:21.057Z,100615.41
2018-08-28T10:44:49.503Z,100605.97
2018-08-28T10:47:18.012Z,100612.48
2018-08-28T10:49:46.499Z,100608.77
2018-08-28T10:52:15.065Z,100607.72
2018-08-28T10:54:43.519Z,100612.58
2018-08-28T10:57:12.027Z,100606.47
2018-08-28T10:59:40.767Z,100605.94
2018-08-28T11:02:09.188Z,100606.81
2018-08-28T11:04:37.815Z,100604.72
2018-08-28T11:07:06.460Z,100588.81
2018-08-28T11:09:34.912Z,100592.64
2018-08-28T11:12:03.351Z,100594.59
2018-08-28T11:14:32.039Z,100593.63
2018-08-28T11:17:00.599Z,100592.03
2018-08-28T11:19:29.075Z,100591.03
2018-08-28T11:21:57.822Z,100596.28
2018-08-28T11:24:26.357Z,100588.45
2018-08-28T11:26:54.775Z,100584.73
2018-08-28T11:29:23.407Z,100588.31
2018-08-28T11:31:51.860Z,100580.09
2018-08-28T11:34:20.669Z,100581.51
2018-08-28T11:36:49.328Z,100587.15
2018-08-28T11:39:17.825Z,100577.91
2018-08-28T11:41:46.332Z,100577.25
2018-08-28T11:44:14.983Z,100577.38
2018-08-28T11:46:43.544Z,100571.27
2018-08-28T11:49:12.159Z,100572.16
2018-08-28T11:51:40.650Z,100573.28
2018-08-28T11:54:09.075Z,100574.88
2018-08-28T11:56:37.732Z,100575.73
2018-08-28T11:59:06.262Z,100569.77
2018-08-28T12:01:34.716Z,100566.23
2018-08-28T12:04:03.196Z,100564.79
2018-08-28T12:06:31.846Z,100562.20
2018-08-28T12:09:00.221Z,100560.66
2018-08-28T12:11:28.771Z,100562.78
2018-08-28T12:13:57.287Z,100557.84
2018-08-28T12:16:25.845Z,100554.65
2018-08-28T12:18:54.279Z,100557.52
2018-08-28T12:21:22.780Z,100551.84
2018-08-28T12:23:51.175Z,100544.53
2018-08-28T12:26:19.617Z,100542.79
2018-08-28T12:28:48.283Z,100542.64
2018-08-28T12:31:16.832Z,100537.34
2018-08-28T12:33:45.292Z,100536.73
2018-08-28T12:36:13.975Z,100527.25
2018-08-28T12:38:42.498Z,100527.22
2018-08-28T12:41:11.351Z,100522.14
2018-08-28T12:43:40.021Z,100521.27
2018-08-28T12:46:08.533Z,100520.44
2018-08-28T12:48:36.995Z,100519.67
2018-08-28T12:51:06.320Z,100521.05
2018-08-28T12:53:34.800Z,100520.30
2018-08-28T12:56:03.280Z,100521.30
2018-08-28T12:58:31.995Z,100515.73
2018-08-28T13:01:00.418Z,100509.56
2018-08-28T13:03:28.884Z,100510.80
2018-08-28T13:05:57.396Z,100503.90
2018-08-28T13:08:25.847Z,100498.80
2018-08-28T13:10:54.511Z,100496.98
2018-08-28T13:13:23.223Z,100496.11
2018-08-28T13:15:51.974Z,100490.88
2018-08-28T13:18:20.818Z,100482.78
2018-08-28T13:20:49.308Z,100477.09
2018-08-28T13:23:17.763Z,100476.36
2018-08-28T13:25:46.292Z,100471.36
2018-08-28T13:28:14.992Z,100470.91
2018-08-28T13:30:43.568Z,100469.52
2018-08-28T13:33:12.038Z,100470.19
2018-08-28T13:35:40.731Z,100467.68
2018-08-28T13:38:09.227Z,100468.80
2018-08-28T13:40:37.869Z,100462.88
2018-08-28T13:43:07.046Z,100469.55
2018-08-28T13:45:35.650Z,100470.94
2018-08-28T13:48:04.111Z,100459.66
2018-08-28T13:50:32.679Z,100455.22
2018-08-28T13:53:01.117Z,100447.55
2018-08-28T13:55:29.592Z,100452.22
2018-08-28T13:57:58.019Z,100449.78
2018-08-28T14:00:26.639Z,100452.08
2018-08-28T14:02:55.068Z,100450.34
2018-08-28T14:05:23.747Z,100452.23
2018-08-28T14:07:52.213Z,100449.50
2018-08-28T14:10:20.666Z,100440.80
2018-08-28T14:12:49.211Z,100434.08
2018-08-28T14:15:17.671Z,100437.44
2018-08-28T14:17:46.151Z,100438.21
2018-08-28T14:20:14.657Z,100434.08
2018-08-28T14:22:43.323Z,100430.13
2018-08-28T14:25:11.771Z,100431.72
2018-08-28T14:27:40.347Z,100425.57
2018-08-28T14:30:14.095Z,100426.84
2018-08-28T14:32:42.552Z,100428.61
2018-08-28T14:35:10.975Z,100426.84
2018-08-28T14:37:39.444Z,100426.93
2018-08-28T14:40:08.099Z,100423.89
2018-08-28T14:42:36.730Z,100410.52
2018-08-28T14:45:05.631Z,100408.97
2018-08-28T14:47:34.288Z,100414.92
2018-08-28T14:50:02.886Z,100407.27
2018-08-28T14:52:31.222Z,100396.52
2018-08-28T14:54:59.752Z,100387.75
2018-08-28T14:57:28.248Z,100390.42
2018-08-28T14:59:56.813Z,100394.48
2018-08-28T15:02:25.271Z,100388.22
2018-08-28T15:04:53.743Z,100390.14
2018-08-28T15:07:22.184Z,100393.00
2018-08-28T15:09:50.969Z,100386.56
2018-08-28T15:12:19.407Z,100390.45
2018-08-28T15:14:47.954Z,100387.56
2018-08-28T15:17:16.570Z,100393.50
2018-08-28T15:19:45.048Z,100390.76
2018-08-28T15:22:13.471Z,100384.29
2018-08-28T15:24:42.160Z,100386.22
2018-08-28T15:27:10.697Z,100388.41
2018-08-28T15:29:39.143Z,100387.22
2018-08-28T15:32:07.801Z,100380.88
2018-08-28T15:34:36.468Z,100380.67
2018-08-28T15:37:05.055Z,100380.00
2018-08-28T15:39:33.675Z,100375.92
2018-08-28T15:42:02.203Z,100370.66
2018-08-28T15:44:30.722Z,100369.21
2018-08-28T15:46:59.418Z,100370.86
2018-08-28T15:49:27.916Z,100359.97
2018-08-28T15:51:56.437Z,100365.77
2018-08-28T15:54:24.964Z,100355.48
2018-08-28T15:56:53.435Z,100353.70
2018-08-28T15:59:21.967Z,100356.04
2018-08-28T16:01:50.407Z,100358.23
2018-08-28T16:04:21.579Z,100351.77
2018-08-28T16:06:51.787Z,100351.98
2018-08-28T16:09:20.277Z,100350.33
2018-08-28T16:11:48.979Z,100349.60
2018-08-28T16:14:17.451Z,100353.56
2018-08-28T16:16:46.691Z,100353.56
2018-08-28T16:19:15.384Z,100355.11
2018-08-28T16:21:52.939Z,100351.91
2018-08-28T16:24:21.955Z,100346.54
2018-08-28T16:26:50.491Z,100347.72
2018-08-28T16:29:19.021Z,100342.61
2018-08-28T16:31:47.578Z,100341.98
2018-08-28T16:34:16.040Z,100335.50
2018-08-28T16:36:44.703Z,100332.60
2018-08-28T16:39:13.167Z,100323.59
2018-08-28T16:41:41.763Z,100322.83
2018-08-28T16:44:10.420Z,100322.72
2018-08-28T16:46:39.005Z,100326.70
2018-08-28T16:49:07.407Z,100325.59
2018-08-28T16:51:36.196Z,100319.66
2018-08-28T16:54:04.819Z,100320.01
2018-08-28T16:56:33.331Z,100312.69
2018-08-28T16:59:01.967Z,100318.56
2018-08-28T17:01:30.483Z,100316.27
2018-08-28T17:03:58.883Z,100308.13
2018-08-28T17:06:27.479Z,100317.05
2018-08-28T17:08:55.972Z,100310.30
2018-08-28T17:11:24.483Z,100307.94
2018-08-28T17:13:53.251Z,100304.95
2018-08-28T17:16:21.765Z,100300.83
2018-08-28T17:18:50.243Z,100294.47
2018-08-28T17:21:18.780Z,100291.88
2018-08-28T17:23:47.268Z,100292.14
2018-08-28T17:26:15.712Z,100294.44
2018-08-28T17:28:44.409Z,100294.91
2018-08-28T17:31:12.943Z,100291.06
2018-08-28T17:33:41.376Z,100288.49
2018-08-28T17:36:10.099Z,100292.55
2018-08-28T17:38:38.636Z,100293.53
2018-08-28T17:41:07.084Z,100297.84
2018-08-28T17:43:35.679Z,100301.33
2018-08-28T17:46:04.276Z,100298.88
2018-08-28T17:48:33.753Z,100295.42
2018-08-28T17:51:02.387Z,100290.66
2018-08-28T17:53:30.930Z,100291.77
2018-08-28T17:55:59.770Z,100292.06
2018-08-28T17:58:28.590Z,100291.06
2018-08-28T18:00:57.751Z,100293.04
2018-08-28T18:03:26.286Z,100295.94
2018-08-28T18:05:55.442Z,100290.75
2018-08-28T18:08:24.266Z,100295.48
2018-08-28T18:10:53.056Z,100293.70
2018-08-28T18:13:21.790Z,100289.08
2018-08-28T18:15:50.607Z,100289.37
2018-08-28T18:18:19.830Z,100288.11
2018-08-28T18:20:49.576Z,100287.02
2018-08-28T18:23:19.063Z,100289.95
2018-08-28T18:25:48.058Z,100283.16
2018-08-28T18:28:17.333Z,100277.84
2018-08-28T18:30:46.376Z,100280.83
2018-08-28T18:33:15.415Z,100277.48
2018-08-28T18:35:44.653Z,100273.08
2018-08-28T18:38:13.619Z,100276.48
2018-08-28T18:40:42.851Z,100278.59
2018-08-28T18:43:11.958Z,100279.94
2018-08-28T18:45:41.486Z,100280.67
2018-08-28T18:48:10.547Z,100287.19
2018-08-28T18:50:40.499Z,100287.77
2018-08-28T18:53:09.635Z,100292.69
2018-08-28T18:55:38.842Z,100285.59
2018-08-28T18:58:08.317Z,100282.72
2018-08-28T19:00:37.663Z,100287.00
2018-08-28T19:03:06.778Z,100292.02
2018-08-28T19:05:36.662Z,100292.67
2018-08-28T19:08:05.784Z,100288.13
2018-08-28T19:10:34.977Z,100295.25
2018-08-28T19:13:04.293Z,100298.25
2018-08-28T19:15:33.487Z,100302.15
2018-08-28T19:18:02.661Z,100291.48
2018-08-28T19:20:32.242Z,100294.11
2018-08-28T19:23:01.966Z,100293.70
2018-08-28T19:25:31.979Z,100293.60
2018-08-28T19:28:01.874Z,100293.41
2018-08-28T19:30:31.061Z,100302.09
2018-08-28T19:33:00.131Z,100292.55
2018-08-28T19:35:29.153Z,100293.64
2018-08-28T19:37:58.244Z,100295.71
2018-08-28T19:40:28.397Z,100297.16
2018-08-28T19:42:57.525Z,100300.66
2018-08-28T19:45:30.755Z,100300.06
2018-08-28T19:47:59.702Z,100303.34
2018-08-28T19:50:29.508Z,100291.90
2018-08-28T19:52:58.717Z,100294.83
2018-08-28T19:55:28.138Z,100293.97
2018-08-28T19:57:57.840Z,100290.33
2018-08-28T20:00:27.815Z,100294.83
2018-08-28T20:02:56.807Z,100291.45
2018-08-28T20:05:28.024Z,100296.44
2018-08-28T20:07:57.614Z,100296.06
2018-08-28T20:10:27.828Z,100294.14
2018-08-28T20:12:57.228Z,100297.13
2018-08-28T20:15:26.255Z,100296.83
2018-08-28T20:17:56.082Z,100292.59
2018-08-28T20:20:25.117Z,100295.74
2018-08-28T20:22:54.222Z,100295.91
2018-08-28T20:25:25.218Z,100300.16
2018-08-28T20:27:54.351Z,100299.31
2018-08-28T20:30:23.955Z,100302.94
2018-08-28T20:32:53.294Z,100299.73
2018-08-28T20:35:22.380Z,100298.70
2018-08-28T20:37:51.359Z,100292.02
2018-08-28T20:40:20.524Z,100289.41
2018-08-28T20:42:49.507Z,100284.74
2018-08-28T20:45:18.471Z,100278.52
2018-08-28T20:47:47.528Z,100279.19
2018-08-28T20:50:17.481Z,100278.00
2018-08-28T20:52:46.357Z,100276.31
2018-08-28T20:55:15.448Z,100272.54
2018-08-28T20:57:44.252Z,100263.23
2018-08-28T21:00:13.078Z,100265.30
2018-08-28T21:02:42.109Z,100264.52
2018-08-28T21:05:10.625Z,100261.82
2018-08-28T21:07:39.248Z,100259.86
2018-08-28T21:10:07.915Z,100252.20
2018-08-28T21:12:36.542Z,100250.31
2018-08-28T21:15:04.992Z,100249.22
2018-08-28T21:17:33.459Z,100249.60
2018-08-28T21:20:02.001Z,100248.38
2018-08-28T21:22:30.456Z,100255.43
2018-08-28T21:24:59.103Z,100250.47
2018-08-28T21:27:27.523Z,100250.64
2018-08-28T21:29:56.061Z,100249.11
2018-08-28T21:32:24.817Z,100245.79
2018-08-28T21:34:53.359Z,100243.38
2018-08-28T21:37:21.883Z,100243.91
2018-08-28T21:39:50.351Z,100236.38
2018-08-28T21:42:18.876Z,100238.55
2018-08-28T21:44:47.325Z,100233.63
2018-08-28T21:47:15.831Z,100234.95
2018-08-28T21:49:44.316Z,100233.56
2018-08-28T21:52:12.907Z,100229.22
2018-08-28T21:54:41.439Z,100226.08
2018-08-28T21:57:09.880Z,100220.82
2018-08-28T21:59:38.381Z,100222.73
2018-08-28T22:02:06.961Z,100222.09
2018-08-28T22:04:35.616Z,100219.87
2018-08-28T22:07:09.420Z,100224.55
2018-08-28T22:09:37.912Z,100225.11
2018-08-28T22:12:06.414Z,100220.48
2018-08-28T22:14:35.115Z,100221.57
2018-08-28T22:17:03.807Z,100213.61
2018-08-28T22:19:32.375Z,100215.88
2018-08-28T22:22:01.147Z,100224.96
2018-08-28T22:24:30.123Z,100226.37
2018-08-28T22:26:58.763Z,100220.09
2018-08-28T22:29:27.287Z,100212.89
2018-08-28T22:31:55.774Z,100215.08
2018-08-28T22:34:24.395Z,100219.63
2018-08-28T22:36:53.127Z,100222.94
2018-08-28T22:39:21.659Z,100225.53
2018-08-28T22:41:50.493Z,100224.20
2018-08-28T22:44:19.119Z,100221.12
2018-08-28T22:46:47.556Z,100214.44
2018-08-28T22:49:16.021Z,100212.61
2018-08-28T22:51:44.577Z,100205.40
2018-08-28T22:54:13.271Z,100214.77
2018-08-28T22:56:41.575Z,100219.94
2018-08-28T22:59:10.033Z,100218.62
2018-08-28T23:01:38.547Z,100219.55
2018-08-28T23:04:07.064Z,100225.83
2018-08-28T23:06:35.792Z,100215.98
2018-08-28T23:09:05.032Z,100213.53
2018-08-28T23:11:33.455Z,100208.45
2018-08-28T23:14:02.075Z,100198.84
2018-08-28T23:16:30.623Z,100206.18
2018-08-28T23:18:59.364Z,100210.64
2018-08-28T23:21:27.969Z,100209.91
2018-08-28T23:23:56.487Z,100192.45
2018-08-28T23:26:24.975Z,100187.75
2018-08-28T23:28:53.658Z,100195.42
2018-08-28T23:31:22.196Z,100188.14
2018-08-28T23:33:50.702Z,100184.67
2018-08-28T23:36:19.156Z,100181.30
2018-08-28T23:38:47.599Z,100186.01
2018-08-28T23:41:16.084Z,100182.09
2018-08-28T23:43:44.816Z,100181.37
2018-08-28T23:46:13.244Z,100184.98
2018-08-28T23:48:41.691Z,100174.02
2018-08-28T23:51:10.557Z,100170.24
2018-08-28T23:53:39.215Z,100166.06
2018-08-28T23:56:07.981Z,100166.24
2018-08-28T23:58:36.539Z,100172.35
